Lady G — V7ON5 — position and weather

sailwx.info

Track history (hours):
 
Tides and Currents Weather Stations Pressure Air Temp Water Temp Dewpoint Dewpoint Depression Visibility Wind Speed Wind Dir Waves Ship Positions

Lady G

Last reported at 2014-Jul-28 18:08 UTC. Time now 2014-Sep-21 06:08 UTC.
Position N 40°59' W 072°28'.
Warning: this ship's position is 54 days out of date.

Length 27 m; draft 2 m.

Type: Fishing. MMSI: 538070487.

Date/timePositionNaut miles runAvg speedWind from/ knotsBaromVisibWave heightAir tempDewpointWater temp
2014-Jul-28 18:08N 40°59' W 072°28'0 0.0
2014-Jul-28 17:33N 40°59' W 072°28'0 0.0
2014-Jul-28 16:33N 40°59' W 072°28'0 0.0
2014-Jul-28 15:33N 40°59' W 072°28'0 0.0
2014-Jul-28 14:33N 40°59' W 072°28'0 0.0
2014-Jul-28 13:33N 40°59' W 072°28'0 0.0
2014-Jul-28 12:33N 40°59' W 072°28'  
2014-Jul-24 12:19N 40°59' W 072°28'84 3.5
2014-Jul-23 12:21N 39°35' W 072°13'4 5.5
2014-Jul-23 11:33N 39°31' W 072°14'3 3.1
2014-Jul-23 10:33N 39°31' W 072°10'2 1.9
2014-Jul-23 09:33N 39°29' W 072°10'6 5.5
2014-Jul-23 08:33N 39°24' W 072°09'14 9.3
2014-Jul-23 07:05N 39°12' W 072°17'711.5
2014-Jul-23 06:28N 39°07' W 072°24'1011.2
2014-Jul-23 05:33N 38°60' W 072°34'2210.3
2014-Jul-23 03:24N 38°45' W 072°55'910.1
2014-Jul-23 02:33N 38°39' W 073°03'1110.5
2014-Jul-23 01:32N 38°32' W 073°13'9 8.8
2014-Jul-23 00:31N 38°25' W 073°21'15710.5
2014-Jul-22 09:33N 36°50' W 075°58'0 0.0
2014-Jul-22 08:27N 36°50' W 075°58'0 0.0
2014-Jul-21 21:31N 36°50' W 075°58'  
Track history (hours):
 
Tides and Currents Weather Stations Pressure Air Temp Water Temp Dewpoint Dewpoint Depression Visibility Wind Speed Wind Dir Waves Ship Positions

Lady G

Last reported at 2014-Jul-28 18:08 UTC. Time now 2014-Sep-21 06:08 UTC.
Position N 40°59' W 072°28'.
Warning: this ship's position is 54 days out of date.

Length 27 m; draft 2 m.

Type: Fishing. MMSI: 538070487.

Date/timePositionNaut miles runAvg speedWind from/ knotsBaromVisibWave heightAir tempDewpointWater temp
2014-Jul-28 18:08N 40°59' W 072°28'0 0.0
2014-Jul-28 17:33N 40°59' W 072°28'0 0.0
2014-Jul-28 16:33N 40°59' W 072°28'0 0.0
2014-Jul-28 15:33N 40°59' W 072°28'0 0.0
2014-Jul-28 14:33N 40°59' W 072°28'0 0.0
2014-Jul-28 13:33N 40°59' W 072°28'0 0.0
2014-Jul-28 12:33N 40°59' W 072°28'  
2014-Jul-24 12:19N 40°59' W 072°28'84 3.5
2014-Jul-23 12:21N 39°35' W 072°13'4 5.5
2014-Jul-23 11:33N 39°31' W 072°14'3 3.1
2014-Jul-23 10:33N 39°31' W 072°10'2 1.9
2014-Jul-23 09:33N 39°29' W 072°10'6 5.5
2014-Jul-23 08:33N 39°24' W 072°09'14 9.3
2014-Jul-23 07:05N 39°12' W 072°17'711.5
2014-Jul-23 06:28N 39°07' W 072°24'1011.2
2014-Jul-23 05:33N 38°60' W 072°34'2210.3
2014-Jul-23 03:24N 38°45' W 072°55'910.1
2014-Jul-23 02:33N 38°39' W 073°03'1110.5
2014-Jul-23 01:32N 38°32' W 073°13'9 8.8
2014-Jul-23 00:31N 38°25' W 073°21'15710.5
2014-Jul-22 09:33N 36°50' W 075°58'0 0.0
2014-Jul-22 08:27N 36°50' W 075°58'0 0.0
2014-Jul-21 21:31N 36°50' W 075°58'  

Dump ship's entire track history